createdAt,value
2022-11-12T00:01:48.065Z,10.47
2022-11-12T00:07:08.797Z,9.30
2022-11-12T00:12:29.624Z,9.07
2022-11-12T00:17:50.292Z,8.83
2022-11-12T00:23:11.189Z,9.37
2022-11-12T00:28:37.373Z,9.60
2022-11-12T00:33:59.094Z,9.83
2022-11-12T00:39:19.769Z,8.80
2022-11-12T00:44:40.568Z,8.63
2022-11-12T00:50:01.545Z,8.53
2022-11-12T00:55:22.328Z,7.87
2022-11-12T01:00:43.289Z,7.03
2022-11-12T01:06:10.024Z,6.03
2022-11-12T01:11:30.787Z,6.43
2022-11-12T01:16:51.930Z,4.63
2022-11-12T01:22:12.585Z,5.07
2022-11-12T01:27:34.052Z,4.37
2022-11-12T01:32:54.656Z,4.47
2022-11-12T01:38:15.505Z,4.10
2022-11-12T01:43:36.669Z,4.47
2022-11-12T01:49:00.787Z,4.70
2022-11-12T01:54:22.748Z,5.00
2022-11-12T01:59:47.758Z,4.23
2022-11-12T02:05:11.578Z,4.40
2022-11-12T02:10:32.624Z,7.07
2022-11-12T02:15:53.608Z,8.00
2022-11-12T02:21:14.239Z,11.03
2022-11-12T02:26:38.757Z,9.37
2022-11-12T02:31:59.911Z,7.87
2022-11-12T02:37:20.771Z,6.97
2022-11-12T02:42:41.370Z,7.13
2022-11-12T02:48:02.371Z,6.67
2022-11-12T02:53:23.144Z,7.73
2022-11-12T02:58:43.699Z,8.07
2022-11-12T03:04:04.449Z,7.47
2022-11-12T03:09:25.217Z,6.63
2022-11-12T03:14:46.211Z,6.70
2022-11-12T03:20:07.236Z,6.27
2022-11-12T03:25:29.056Z,5.90
2022-11-12T03:30:49.716Z,5.53
2022-11-12T03:36:10.384Z,5.23
2022-11-12T03:41:31.143Z,4.57
2022-11-12T03:46:51.860Z,4.17
2022-11-12T03:52:12.758Z,4.20
2022-11-12T03:57:33.585Z,4.00
2022-11-12T04:02:54.975Z,3.93
2022-11-12T04:08:37.398Z,3.57
2022-11-12T04:13:58.863Z,3.90
2022-11-12T04:19:38.454Z,3.93
2022-11-12T04:25:37.796Z,3.80
2022-11-12T04:30:58.421Z,4.90
2022-11-12T04:36:19.197Z,5.10
2022-11-12T04:41:58.335Z,6.57
2022-11-12T04:47:19.377Z,6.90
2022-11-12T04:52:40.706Z,6.07
2022-11-12T04:58:01.684Z,6.07
2022-11-12T05:03:22.858Z,5.03
2022-11-12T05:08:43.676Z,4.73
2022-11-12T05:14:04.575Z,4.63
2022-11-12T05:19:25.302Z,4.40
2022-11-12T05:24:46.666Z,4.27
2022-11-12T05:30:08.121Z,4.23
2022-11-12T05:35:28.932Z,4.47
2022-11-12T05:40:49.610Z,5.13
2022-11-12T05:46:11.055Z,4.47
2022-11-12T05:51:32.103Z,5.00
2022-11-12T05:56:55.906Z,4.70
2022-11-12T06:02:16.767Z,5.27
2022-11-12T06:07:37.443Z,5.30
2022-11-12T06:12:59.588Z,4.37
2022-11-12T06:18:21.031Z,4.87
2022-11-12T06:23:41.951Z,5.10
2022-11-12T06:29:02.866Z,5.53
2022-11-12T06:34:23.389Z,4.53
2022-11-12T06:39:44.203Z,5.37
2022-11-12T06:45:05.380Z,5.20
2022-11-12T06:50:26.038Z,4.80
2022-11-12T06:55:46.664Z,4.97
2022-11-12T07:01:12.979Z,4.83
2022-11-12T07:06:34.746Z,5.20
2022-11-12T07:11:55.717Z,4.67
2022-11-12T07:17:16.503Z,4.97
2022-11-12T07:22:37.140Z,4.50
2022-11-12T07:27:58.098Z,4.47
2022-11-12T07:33:19.063Z,4.30
2022-11-12T07:38:41.268Z,3.80
2022-11-12T07:44:02.292Z,4.23
2022-11-12T07:49:22.998Z,5.23
2022-11-12T07:54:44.121Z,4.37
2022-11-12T08:00:05.566Z,4.40
2022-11-12T08:05:26.783Z,4.77
2022-11-12T08:10:47.520Z,4.30
2022-11-12T08:16:08.957Z,4.40
2022-11-12T08:21:29.785Z,4.80
2022-11-12T08:26:50.539Z,4.83
2022-11-12T08:32:11.589Z,4.60
2022-11-12T08:37:32.483Z,4.77
2022-11-12T08:43:03.813Z,4.83
2022-11-12T08:48:25.436Z,4.67
2022-11-12T08:53:46.649Z,4.97
2022-11-12T08:59:07.578Z,5.03
2022-11-12T09:04:28.713Z,5.00
2022-11-12T09:09:49.509Z,4.87
2022-11-12T09:15:36.202Z,5.70
2022-11-12T09:20:51.153Z,5.93
2022-11-12T09:26:11.997Z,6.27
2022-11-12T09:31:33.057Z,6.67
2022-11-12T09:36:55.119Z,6.30
2022-11-12T09:42:22.323Z,5.87
2022-11-12T09:47:54.218Z,6.17
2022-11-12T09:53:19.192Z,5.80
2022-11-12T09:58:40.080Z,5.10
2022-11-12T10:04:13.006Z,5.73
2022-11-12T10:09:57.415Z,5.57
2022-11-12T10:16:09.272Z,5.00
2022-11-12T10:21:54.238Z,5.17
2022-11-12T10:27:20.815Z,4.70
2022-11-12T10:32:45.017Z,4.27
2022-11-12T10:38:12.481Z,4.73
2022-11-12T10:43:33.306Z,4.30
2022-11-12T10:49:02.573Z,4.40
2022-11-12T10:54:36.044Z,4.33
2022-11-12T11:00:18.831Z,5.10
2022-11-12T11:05:51.930Z,4.83
2022-11-12T11:11:24.557Z,5.50
2022-11-12T11:16:57.878Z,4.63
2022-11-12T11:22:42.609Z,4.90
2022-11-12T11:28:30.257Z,4.80
2022-11-12T11:33:54.296Z,4.70
2022-11-12T11:39:36.487Z,4.47
2022-11-12T11:45:16.955Z,4.50
2022-11-12T11:50:53.468Z,4.60
2022-11-12T11:56:17.477Z,4.13
2022-11-12T12:01:50.328Z,3.97
2022-11-12T12:07:35.273Z,4.07
2022-11-12T12:13:28.171Z,4.17
2022-11-12T12:19:13.380Z,3.87
2022-11-12T12:24:53.840Z,3.80
2022-11-12T12:30:20.017Z,3.80
2022-11-12T12:35:56.753Z,3.40
2022-11-12T12:41:41.907Z,3.30
2022-11-12T12:47:03.131Z,3.40
2022-11-12T12:52:24.514Z,3.20
2022-11-12T12:57:45.361Z,3.50
2022-11-12T13:03:07.056Z,3.30
2022-11-12T13:08:34.522Z,3.13
2022-11-12T13:13:55.676Z,3.90
2022-11-12T13:19:28.059Z,3.27
2022-11-12T13:25:05.426Z,3.03
2022-11-12T13:30:26.569Z,3.43
2022-11-12T13:35:47.596Z,3.23
2022-11-12T13:41:19.455Z,3.67
2022-11-12T13:46:40.817Z,4.33
2022-11-12T13:52:04.828Z,3.90
2022-11-12T13:57:28.264Z,4.37
2022-11-12T14:03:04.167Z,4.73
2022-11-12T14:08:55.790Z,4.60
2022-11-12T14:14:22.499Z,4.83
2022-11-12T14:19:58.299Z,4.77
2022-11-12T14:25:20.908Z,4.60
2022-11-12T14:30:45.028Z,4.30
2022-11-12T14:36:10.650Z,4.80
2022-11-12T14:41:38.146Z,4.20
2022-11-12T14:47:00.243Z,4.53
2022-11-12T14:52:28.749Z,3.97
2022-11-12T14:57:49.577Z,4.40
2022-11-12T15:03:23.238Z,3.83
2022-11-12T15:08:44.207Z,3.93
2022-11-12T15:14:05.616Z,4.13
2022-11-12T15:19:28.613Z,3.90
2022-11-12T15:24:49.696Z,4.00
2022-11-12T15:30:23.483Z,4.20
2022-11-12T15:35:45.098Z,4.73
2022-11-12T15:41:06.704Z,4.63
2022-11-12T15:46:27.854Z,4.73
2022-11-12T15:51:48.643Z,4.93
2022-11-12T15:57:16.564Z,4.30
2022-11-12T16:02:37.896Z,3.67
2022-11-12T16:07:58.642Z,3.50
2022-11-12T16:13:26.099Z,4.50
2022-11-12T16:18:46.785Z,3.87
2022-11-12T16:24:07.928Z,3.43
2022-11-12T16:29:29.022Z,3.83
2022-11-12T16:34:50.008Z,3.87
2022-11-12T16:40:19.735Z,3.97
2022-11-12T16:45:42.758Z,4.30
2022-11-12T16:51:03.388Z,3.80
2022-11-12T16:56:24.174Z,4.30
2022-11-12T17:01:44.930Z,4.13
2022-11-12T17:07:06.347Z,4.27
2022-11-12T17:12:27.184Z,4.30
2022-11-12T17:17:47.825Z,4.63
2022-11-12T17:23:08.789Z,4.90
2022-11-12T17:28:30.232Z,4.97
2022-11-12T17:33:52.841Z,4.70
2022-11-12T17:39:13.823Z,5.20
2022-11-12T17:44:34.667Z,5.27
2022-11-12T17:49:55.340Z,5.20
2022-11-12T17:55:16.127Z,5.13
2022-11-12T18:00:38.452Z,5.43
2022-11-12T18:06:00.054Z,5.67
2022-11-12T18:11:22.125Z,5.77
2022-11-12T18:16:42.937Z,5.50
2022-11-12T18:22:04.256Z,5.47
2022-11-12T18:27:25.221Z,6.00
2022-11-12T18:32:45.918Z,5.90
2022-11-12T18:38:07.498Z,7.90
2022-11-12T18:43:28.788Z,6.63
2022-11-12T18:48:50.661Z,7.47
2022-11-12T18:54:11.399Z,6.77
2022-11-12T18:59:32.547Z,7.17
2022-11-12T19:04:53.233Z,7.13
2022-11-12T19:10:15.201Z,7.30
2022-11-12T19:15:36.262Z,6.93
2022-11-12T19:21:18.673Z,7.33
2022-11-12T19:26:39.563Z,6.93
2022-11-12T19:32:00.473Z,7.47
2022-11-12T19:37:36.769Z,7.57
2022-11-12T19:42:57.975Z,7.03
2022-11-12T19:48:18.949Z,6.77
2022-11-12T19:53:46.789Z,7.97
2022-11-12T19:59:08.033Z,6.30
2022-11-12T20:04:28.973Z,6.70
2022-11-12T20:09:49.747Z,6.23
2022-11-12T20:15:11.569Z,6.63
2022-11-12T20:20:32.605Z,7.03
2022-11-12T20:25:53.778Z,6.77
2022-11-12T20:31:22.798Z,6.73
2022-11-12T20:36:43.719Z,6.57
2022-11-12T20:42:04.573Z,7.13
2022-11-12T20:47:25.700Z,7.13
2022-11-12T20:52:46.642Z,6.10
2022-11-12T20:58:07.332Z,6.10
2022-11-12T21:03:28.306Z,6.63
2022-11-12T21:08:49.807Z,6.90
2022-11-12T21:14:11.027Z,6.70
2022-11-12T21:19:31.751Z,6.30
2022-11-12T21:24:52.708Z,6.10
2022-11-12T21:30:13.918Z,7.13
2022-11-12T21:35:34.828Z,7.37
2022-11-12T21:41:11.091Z,7.57
2022-11-12T21:46:32.490Z,7.47
2022-11-12T21:51:53.281Z,7.40
2022-11-12T21:57:18.645Z,7.90
2022-11-12T22:02:39.832Z,7.60
2022-11-12T22:08:00.592Z,8.17
2022-11-12T22:13:26.970Z,8.17
2022-11-12T22:18:51.848Z,8.13
2022-11-12T22:24:12.652Z,7.30
2022-11-12T22:29:33.276Z,7.87
2022-11-12T22:34:53.916Z,8.17
2022-11-12T22:40:14.900Z,8.80
2022-11-12T22:45:36.009Z,8.70
2022-11-12T22:51:05.046Z,8.57
2022-11-12T22:56:26.696Z,8.23
2022-11-12T23:01:47.630Z,8.47
2022-11-12T23:07:08.519Z,8.20
2022-11-12T23:12:30.228Z,7.50
2022-11-12T23:17:50.935Z,7.83
2022-11-12T23:23:11.544Z,7.60
2022-11-12T23:28:33.878Z,7.73
2022-11-12T23:33:57.065Z,7.37
2022-11-12T23:39:18.029Z,7.97
2022-11-12T23:44:39.461Z,7.77
2022-11-12T23:50:00.210Z,7.80
2022-11-12T23:55:21.181Z,7.47
